Airfield :
LOGIN :

Register | Disclaimer

   EN    FR    IT 

 










Legend :    VFR   Marginal VFR   IFR   Intensive IFR   Very Intensive IFR
Visi :
Ceiling :
>= 8 km
>= 3000ft
5 to 8 km
1000 to 3000 ft
1500m to 5 km
500 to 1000 ft
800 to 1500m
200 to 500 ft
< 800m
< 200 ft
Symbols :   Thunderstorms  Fog  Heavy snow  Heavy precipitations  Wind > 20 kt
SIGMETs :     Misc.  Thunderstorms  Icing  Turbulence  Mountain Waves  Volcanic Ashes






- Airport Elevation : 72 ft
- IATA code : UDE


EHVK - Volkel Airbase

CURRENT METAR :
  • 280855Z AUTO 19006KT 150V220 6000 RA SCT003 BKN004 OVC006 08/07 Q1009 RERA REDZ YLO

EXPIRED METARs :
  • 280834Z AUTO 19006KT 160V230 4200 +DZ SCT003 OVC004 08/07 Q1009 YLO
  • 280825Z AUTO 19007KT 160V230 9999 +DZ FEW003 OVC004 08/07 Q1009 YLO
  • 280806Z AUTO 19006KT 140V220 9999 +DZRA SCT004 OVC005 08/07 Q1009 YLO
  • 280755Z AUTO 19006KT 140V220 9999 FEW003 BKN004 OVC005 08/07 Q1009 REDZ YLO
  • 280739Z AUTO 18006KT 150V210 7000 -DZ FEW003 BKN004 OVC005 08/07 Q1009 YLO
  • 280720Z AUTO 18006KT 140V230 3900 +DZ FEW003 BKN004 OVC005 08/07 Q1009 YLO
  • 280659Z AUTO 19006KT 150V210 6000 DZ FEW004 BKN005 OVC006 08/07 Q1009 YLO
  • 280655Z AUTO 19007KT 160V220 9000 DZ FEW004 BKN005 OVC006 08/07 Q1009 YLO
  • 280638Z AUTO 19006KT 160V220 6000 DZ FEW004 BKN005 OVC006 08/07 Q1009 YLO
  • 280555Z AUTO 19008KT 150V230 9000 +DZ FEW004 BKN006 BKN007 08/07 Q1009 YLO

TAF TAF EHVK
Valid from the 28 at 06:00 until the 28 at 18:00 UTC


280537Z 2806/2818 18007KT 9999 -RADZ SCT007 OVC010
TEMPO 2806/2814 4000 -DZRA BR SCT005 OVC007
PROB30
TEMPO 2808/2814 2500 BR DZRA SCT002 BKN005 OVC008
BECMG 2816/2818 3500 BR



MET'MAP, your aeronautical weather chart ! - Copyright ORBIFLY December 2007 - Disclaimer

ORBIFLY MET'MAP TEAM :

Programming & Development : Alexandra Zaïnal
Original concept : Baudouin d'Aumeries
Technical & hardware support : Manuel Goepfert
Assistance : Marc-Olivier Méhu




SOURCES & CREDITS :

   NOAA